sensor_id;sensor_type;location;lat;lon;timestamp;P1;durP1;ratioP1;P2;durP2;ratioP2
26946;SDS011;14501;52.282;10.560;2024-03-08T00:01:06;9.95;;;4.85;;
26946;SDS011;14501;52.282;10.560;2024-03-08T00:03:32;8.13;;;4.10;;
26946;SDS011;14501;52.282;10.560;2024-03-08T00:05:58;23.30;;;6.43;;
26946;SDS011;14501;52.282;10.560;2024-03-08T00:08:24;10.40;;;4.03;;
26946;SDS011;14501;52.282;10.560;2024-03-08T00:10:49;8.93;;;4.57;;
26946;SDS011;14501;52.282;10.560;2024-03-08T00:13:15;15.45;;;4.72;;
26946;SDS011;14501;52.282;10.560;2024-03-08T00:15:41;9.38;;;5.50;;
26946;SDS011;14501;52.282;10.560;2024-03-08T00:18:07;9.48;;;4.30;;
26946;SDS011;14501;52.282;10.560;2024-03-08T00:20:32;15.25;;;6.35;;
26946;SDS011;14501;52.282;10.560;2024-03-08T00:22:59;8.73;;;5.18;;
26946;SDS011;14501;52.282;10.560;2024-03-08T00:25:24;5.47;;;4.63;;
26946;SDS011;14501;52.282;10.560;2024-03-08T00:27:50;16.38;;;6.15;;
26946;SDS011;14501;52.282;10.560;2024-03-08T00:30:16;15.35;;;6.10;;
26946;SDS011;14501;52.282;10.560;2024-03-08T00:32:41;9.82;;;5.15;;
26946;SDS011;14501;52.282;10.560;2024-03-08T00:35:07;16.45;;;6.65;;
26946;SDS011;14501;52.282;10.560;2024-03-08T00:37:33;9.50;;;6.03;;
26946;SDS011;14501;52.282;10.560;2024-03-08T00:40:01;7.85;;;4.25;;
26946;SDS011;14501;52.282;10.560;2024-03-08T00:42:27;15.52;;;6.90;;
26946;SDS011;14501;52.282;10.560;2024-03-08T00:44:52;4.18;;;3.75;;
26946;SDS011;14501;52.282;10.560;2024-03-08T00:47:18;15.27;;;6.03;;
26946;SDS011;14501;52.282;10.560;2024-03-08T00:49:44;10.52;;;4.95;;
26946;SDS011;14501;52.282;10.560;2024-03-08T00:52:09;14.90;;;5.63;;
26946;SDS011;14501;52.282;10.560;2024-03-08T00:54:35;6.55;;;3.45;;
26946;SDS011;14501;52.282;10.560;2024-03-08T00:57:01;13.40;;;5.43;;
26946;SDS011;14501;52.282;10.560;2024-03-08T00:59:30;11.05;;;4.47;;
26946;SDS011;14501;52.282;10.560;2024-03-08T01:02:00;11.73;;;4.80;;
26946;SDS011;14501;52.282;10.560;2024-03-08T01:04:26;17.92;;;4.85;;
26946;SDS011;14501;52.282;10.560;2024-03-08T01:06:55;11.63;;;5.60;;
26946;SDS011;14501;52.282;10.560;2024-03-08T01:09:22;8.40;;;5.60;;
26946;SDS011;14501;52.282;10.560;2024-03-08T01:11:48;8.63;;;4.65;;
26946;SDS011;14501;52.282;10.560;2024-03-08T01:14:14;8.50;;;3.58;;
26946;SDS011;14501;52.282;10.560;2024-03-08T01:16:40;9.48;;;5.43;;
26946;SDS011;14501;52.282;10.560;2024-03-08T01:19:06;7.40;;;3.70;;
26946;SDS011;14501;52.282;10.560;2024-03-08T01:21:31;8.55;;;4.65;;
26946;SDS011;14501;52.282;10.560;2024-03-08T01:23:57;6.57;;;5.10;;
26946;SDS011;14501;52.282;10.560;2024-03-08T01:26:22;12.73;;;5.20;;
26946;SDS011;14501;52.282;10.560;2024-03-08T01:28:49;8.95;;;4.35;;
26946;SDS011;14501;52.282;10.560;2024-03-08T01:31:15;12.38;;;7.05;;
26946;SDS011;14501;52.282;10.560;2024-03-08T01:33:41;9.73;;;5.00;;
26946;SDS011;14501;52.282;10.560;2024-03-08T01:36:07;8.15;;;4.70;;
26946;SDS011;14501;52.282;10.560;2024-03-08T01:38:33;7.13;;;5.22;;
26946;SDS011;14501;52.282;10.560;2024-03-08T01:41:01;10.32;;;5.78;;
26946;SDS011;14501;52.282;10.560;2024-03-08T01:43:27;6.43;;;3.88;;
26946;SDS011;14501;52.282;10.560;2024-03-08T01:45:54;13.30;;;5.93;;
26946;SDS011;14501;52.282;10.560;2024-03-08T01:48:22;8.90;;;6.20;;
26946;SDS011;14501;52.282;10.560;2024-03-08T01:50:49;6.63;;;4.57;;
26946;SDS011;14501;52.282;10.560;2024-03-08T01:53:15;8.85;;;4.85;;
26946;SDS011;14501;52.282;10.560;2024-03-08T01:55:42;15.55;;;6.45;;
26946;SDS011;14501;52.282;10.560;2024-03-08T01:58:11;9.38;;;4.30;;
26946;SDS011;14501;52.282;10.560;2024-03-08T02:00:40;6.57;;;4.10;;
26946;SDS011;14501;52.282;10.560;2024-03-08T02:03:08;7.10;;;5.15;;
26946;SDS011;14501;52.282;10.560;2024-03-08T02:05:34;11.63;;;5.03;;
26946;SDS011;14501;52.282;10.560;2024-03-08T02:08:01;9.63;;;6.60;;
26946;SDS011;14501;52.282;10.560;2024-03-08T02:10:27;7.93;;;4.03;;
26946;SDS011;14501;52.282;10.560;2024-03-08T02:12:53;6.55;;;4.10;;
26946;SDS011;14501;52.282;10.560;2024-03-08T02:15:20;13.93;;;4.32;;
26946;SDS011;14501;52.282;10.560;2024-03-08T02:17:46;8.45;;;5.70;;
26946;SDS011;14501;52.282;10.560;2024-03-08T02:20:12;8.65;;;5.20;;
26946;SDS011;14501;52.282;10.560;2024-03-08T02:22:38;6.22;;;4.47;;
26946;SDS011;14501;52.282;10.560;2024-03-08T02:25:04;6.03;;;4.00;;
26946;SDS011;14501;52.282;10.560;2024-03-08T02:27:30;8.07;;;5.90;;
26946;SDS011;14501;52.282;10.560;2024-03-08T02:29:56;12.93;;;4.72;;
26946;SDS011;14501;52.282;10.560;2024-03-08T02:32:22;10.25;;;4.05;;
26946;SDS011;14501;52.282;10.560;2024-03-08T02:34:48;10.98;;;7.28;;
26946;SDS011;14501;52.282;10.560;2024-03-08T02:37:15;25.52;;;6.38;;
26946;SDS011;14501;52.282;10.560;2024-03-08T02:39:41;8.20;;;4.93;;
26946;SDS011;14501;52.282;10.560;2024-03-08T02:42:07;12.13;;;4.78;;
26946;SDS011;14501;52.282;10.560;2024-03-08T02:44:32;15.85;;;6.47;;
26946;SDS011;14501;52.282;10.560;2024-03-08T02:46:58;8.73;;;4.55;;
26946;SDS011;14501;52.282;10.560;2024-03-08T02:49:24;4.65;;;4.25;;
26946;SDS011;14501;52.282;10.560;2024-03-08T02:51:51;6.85;;;4.50;;
26946;SDS011;14501;52.282;10.560;2024-03-08T02:54:17;14.55;;;4.95;;
26946;SDS011;14501;52.282;10.560;2024-03-08T02:56:44;10.05;;;4.68;;
26946;SDS011;14501;52.282;10.560;2024-03-08T02:59:11;15.55;;;5.47;;
26946;SDS011;14501;52.282;10.560;2024-03-08T03:01:37;7.43;;;5.65;;
26946;SDS011;14501;52.282;10.560;2024-03-08T03:04:03;6.80;;;5.30;;
26946;SDS011;14501;52.282;10.560;2024-03-08T03:06:29;7.47;;;5.07;;
26946;SDS011;14501;52.282;10.560;2024-03-08T03:08:56;10.00;;;6.60;;
26946;SDS011;14501;52.282;10.560;2024-03-08T03:11:22;5.10;;;4.05;;
26946;SDS011;14501;52.282;10.560;2024-03-08T03:13:48;6.47;;;4.63;;
26946;SDS011;14501;52.282;10.560;2024-03-08T03:16:20;11.50;;;4.97;;
26946;SDS011;14501;52.282;10.560;2024-03-08T03:18:46;11.70;;;4.33;;
26946;SDS011;14501;52.282;10.560;2024-03-08T03:21:13;5.90;;;3.10;;
26946;SDS011;14501;52.282;10.560;2024-03-08T03:23:39;12.10;;;4.80;;
26946;SDS011;14501;52.282;10.560;2024-03-08T03:26:06;11.40;;;5.38;;
26946;SDS011;14501;52.282;10.560;2024-03-08T03:28:37;8.88;;;4.38;;
26946;SDS011;14501;52.282;10.560;2024-03-08T03:31:04;18.58;;;4.85;;
26946;SDS011;14501;52.282;10.560;2024-03-08T03:33:30;7.88;;;3.80;;
26946;SDS011;14501;52.282;10.560;2024-03-08T03:35:55;6.57;;;4.93;;
26946;SDS011;14501;52.282;10.560;2024-03-08T03:38:21;14.57;;;3.95;;
26946;SDS011;14501;52.282;10.560;2024-03-08T03:40:48;7.30;;;5.15;;
26946;SDS011;14501;52.282;10.560;2024-03-08T03:43:17;13.57;;;6.30;;
26946;SDS011;14501;52.282;10.560;2024-03-08T03:45:43;8.05;;;3.97;;
26946;SDS011;14501;52.282;10.560;2024-03-08T03:48:09;11.90;;;5.03;;
26946;SDS011;14501;52.282;10.560;2024-03-08T03:50:35;11.05;;;3.72;;
26946;SDS011;14501;52.282;10.560;2024-03-08T03:53:01;8.93;;;4.03;;
26946;SDS011;14501;52.282;10.560;2024-03-08T03:55:27;5.68;;;4.60;;
26946;SDS011;14501;52.282;10.560;2024-03-08T03:57:53;18.05;;;7.03;;
26946;SDS011;14501;52.282;10.560;2024-03-08T04:00:19;7.78;;;3.72;;
26946;SDS011;14501;52.282;10.560;2024-03-08T04:02:45;8.45;;;5.35;;
26946;SDS011;14501;52.282;10.560;2024-03-08T04:05:12;8.23;;;4.78;;
26946;SDS011;14501;52.282;10.560;2024-03-08T04:07:38;12.15;;;4.53;;
26946;SDS011;14501;52.282;10.560;2024-03-08T04:10:05;10.68;;;4.05;;
26946;SDS011;14501;52.282;10.560;2024-03-08T04:12:35;9.63;;;3.28;;
26946;SDS011;14501;52.282;10.560;2024-03-08T04:15:01;9.27;;;5.20;;
26946;SDS011;14501;52.282;10.560;2024-03-08T04:17:27;8.38;;;3.78;;
26946;SDS011;14501;52.282;10.560;2024-03-08T04:19:52;16.55;;;5.30;;
26946;SDS011;14501;52.282;10.560;2024-03-08T04:22:18;7.10;;;4.28;;
26946;SDS011;14501;52.282;10.560;2024-03-08T04:24:44;9.35;;;4.45;;
26946;SDS011;14501;52.282;10.560;2024-03-08T04:27:11;8.77;;;4.30;;
26946;SDS011;14501;52.282;10.560;2024-03-08T04:29:37;7.82;;;5.10;;
26946;SDS011;14501;52.282;10.560;2024-03-08T04:32:03;9.38;;;5.47;;
26946;SDS011;14501;52.282;10.560;2024-03-08T04:34:29;10.88;;;4.63;;
26946;SDS011;14501;52.282;10.560;2024-03-08T04:36:59;15.05;;;7.15;;
26946;SDS011;14501;52.282;10.560;2024-03-08T04:39:25;8.75;;;6.07;;
26946;SDS011;14501;52.282;10.560;2024-03-08T04:41:53;14.45;;;5.78;;
26946;SDS011;14501;52.282;10.560;2024-03-08T04:44:21;7.88;;;4.68;;
26946;SDS011;14501;52.282;10.560;2024-03-08T04:46:47;8.77;;;6.50;;
26946;SDS011;14501;52.282;10.560;2024-03-08T04:49:13;11.30;;;5.13;;
26946;SDS011;14501;52.282;10.560;2024-03-08T04:51:38;13.05;;;5.47;;
26946;SDS011;14501;52.282;10.560;2024-03-08T04:54:05;13.95;;;5.45;;
26946;SDS011;14501;52.282;10.560;2024-03-08T04:56:31;10.20;;;5.38;;
26946;SDS011;14501;52.282;10.560;2024-03-08T04:58:56;7.57;;;4.70;;
26946;SDS011;14501;52.282;10.560;2024-03-08T05:01:22;8.60;;;3.97;;
26946;SDS011;14501;52.282;10.560;2024-03-08T05:03:48;7.00;;;4.78;;
26946;SDS011;14501;52.282;10.560;2024-03-08T05:06:15;18.55;;;6.78;;
26946;SDS011;14501;52.282;10.560;2024-03-08T05:08:41;5.07;;;4.60;;
26946;SDS011;14501;52.282;10.560;2024-03-08T05:11:06;5.95;;;3.45;;
26946;SDS011;14501;52.282;10.560;2024-03-08T05:13:32;11.13;;;4.47;;
26946;SDS011;14501;52.282;10.560;2024-03-08T05:15:59;10.55;;;5.05;;
26946;SDS011;14501;52.282;10.560;2024-03-08T05:18:25;12.20;;;7.07;;
26946;SDS011;14501;52.282;10.560;2024-03-08T05:20:53;14.48;;;5.55;;
26946;SDS011;14501;52.282;10.560;2024-03-08T05:23:19;9.25;;;6.15;;
26946;SDS011;14501;52.282;10.560;2024-03-08T05:25:45;7.50;;;6.15;;
26946;SDS011;14501;52.282;10.560;2024-03-08T05:28:12;13.70;;;6.32;;
26946;SDS011;14501;52.282;10.560;2024-03-08T05:30:38;13.60;;;5.38;;
26946;SDS011;14501;52.282;10.560;2024-03-08T05:33:04;13.27;;;5.13;;
26946;SDS011;14501;52.282;10.560;2024-03-08T05:35:30;8.88;;;5.13;;
26946;SDS011;14501;52.282;10.560;2024-03-08T05:37:57;9.77;;;4.75;;
26946;SDS011;14501;52.282;10.560;2024-03-08T05:40:23;8.68;;;3.85;;
26946;SDS011;14501;52.282;10.560;2024-03-08T05:42:49;12.00;;;4.32;;
26946;SDS011;14501;52.282;10.560;2024-03-08T05:45:14;10.30;;;4.47;;
26946;SDS011;14501;52.282;10.560;2024-03-08T05:47:40;10.50;;;4.70;;
26946;SDS011;14501;52.282;10.560;2024-03-08T05:50:06;4.47;;;4.07;;
26946;SDS011;14501;52.282;10.560;2024-03-08T05:52:35;5.07;;;4.05;;
26946;SDS011;14501;52.282;10.560;2024-03-08T05:55:01;12.38;;;5.82;;
26946;SDS011;14501;52.282;10.560;2024-03-08T05:57:28;8.00;;;5.90;;
26946;SDS011;14501;52.282;10.560;2024-03-08T05:59:53;10.38;;;5.63;;
26946;SDS011;14501;52.282;10.560;2024-03-08T06:02:19;7.57;;;4.70;;
26946;SDS011;14501;52.282;10.560;2024-03-08T06:04:46;7.85;;;4.20;;
26946;SDS011;14501;52.282;10.560;2024-03-08T06:07:12;5.35;;;3.58;;
26946;SDS011;14501;52.282;10.560;2024-03-08T06:09:37;10.95;;;4.30;;
26946;SDS011;14501;52.282;10.560;2024-03-08T06:12:03;6.88;;;5.20;;
26946;SDS011;14501;52.282;10.560;2024-03-08T06:14:31;9.38;;;6.13;;
26946;SDS011;14501;52.282;10.560;2024-03-08T06:16:57;10.65;;;5.93;;
26946;SDS011;14501;52.282;10.560;2024-03-08T06:19:23;6.40;;;3.55;;
26946;SDS011;14501;52.282;10.560;2024-03-08T06:21:48;12.77;;;4.55;;
26946;SDS011;14501;52.282;10.560;2024-03-08T06:24:14;14.00;;;4.38;;
26946;SDS011;14501;52.282;10.560;2024-03-08T06:26:40;10.23;;;5.00;;
26946;SDS011;14501;52.282;10.560;2024-03-08T06:29:06;7.32;;;4.38;;
26946;SDS011;14501;52.282;10.560;2024-03-08T06:31:32;7.25;;;5.07;;
26946;SDS011;14501;52.282;10.560;2024-03-08T06:33:58;13.07;;;6.72;;
26946;SDS011;14501;52.282;10.560;2024-03-08T06:36:24;6.70;;;5.78;;
26946;SDS011;14501;52.282;10.560;2024-03-08T06:38:49;6.22;;;4.03;;
26946;SDS011;14501;52.282;10.560;2024-03-08T06:41:15;8.45;;;4.43;;
26946;SDS011;14501;52.282;10.560;2024-03-08T06:43:42;15.00;;;4.60;;
26946;SDS011;14501;52.282;10.560;2024-03-08T06:46:11;12.32;;;6.20;;
26946;SDS011;14501;52.282;10.560;2024-03-08T06:48:38;9.35;;;5.63;;
26946;SDS011;14501;52.282;10.560;2024-03-08T06:51:04;9.05;;;6.05;;
26946;SDS011;14501;52.282;10.560;2024-03-08T06:53:30;10.70;;;5.53;;
26946;SDS011;14501;52.282;10.560;2024-03-08T06:55:56;12.57;;;5.18;;
26946;SDS011;14501;52.282;10.560;2024-03-08T06:58:25;10.07;;;4.63;;
26946;SDS011;14501;52.282;10.560;2024-03-08T07:00:50;16.83;;;6.85;;
26946;SDS011;14501;52.282;10.560;2024-03-08T07:03:17;11.88;;;6.63;;
26946;SDS011;14501;52.282;10.560;2024-03-08T07:05:43;7.97;;;4.88;;
26946;SDS011;14501;52.282;10.560;2024-03-08T07:08:08;7.35;;;4.95;;
26946;SDS011;14501;52.282;10.560;2024-03-08T07:10:34;11.35;;;6.88;;
26946;SDS011;14501;52.282;10.560;2024-03-08T07:13:02;9.00;;;5.97;;
26946;SDS011;14501;52.282;10.560;2024-03-08T07:15:27;9.73;;;5.43;;
26946;SDS011;14501;52.282;10.560;2024-03-08T07:17:54;13.05;;;6.80;;
26946;SDS011;14501;52.282;10.560;2024-03-08T07:20:19;10.93;;;6.70;;
26946;SDS011;14501;52.282;10.560;2024-03-08T07:22:46;8.73;;;5.55;;
26946;SDS011;14501;52.282;10.560;2024-03-08T07:25:18;16.30;;;7.18;;
26946;SDS011;14501;52.282;10.560;2024-03-08T07:27:54;14.20;;;8.13;;
26946;SDS011;14501;52.282;10.560;2024-03-08T07:30:21;10.00;;;5.72;;
26946;SDS011;14501;52.282;10.560;2024-03-08T07:33:06;18.60;;;5.10;;
26946;SDS011;14501;52.282;10.560;2024-03-08T07:35:32;13.60;;;6.13;;
26946;SDS011;14501;52.282;10.560;2024-03-08T07:38:01;12.93;;;7.47;;
26946;SDS011;14501;52.282;10.560;2024-03-08T07:40:29;10.45;;;6.10;;
26946;SDS011;14501;52.282;10.560;2024-03-08T07:42:55;17.73;;;6.63;;
26946;SDS011;14501;52.282;10.560;2024-03-08T07:45:21;13.52;;;5.80;;
26946;SDS011;14501;52.282;10.560;2024-03-08T07:47:47;9.63;;;6.25;;
26946;SDS011;14501;52.282;10.560;2024-03-08T07:50:13;11.30;;;5.82;;
26946;SDS011;14501;52.282;10.560;2024-03-08T07:52:41;10.63;;;5.68;;
26946;SDS011;14501;52.282;10.560;2024-03-08T07:55:07;10.48;;;6.13;;
26946;SDS011;14501;52.282;10.560;2024-03-08T07:57:33;12.57;;;6.18;;
26946;SDS011;14501;52.282;10.560;2024-03-08T07:59:59;11.35;;;6.63;;
26946;SDS011;14501;52.282;10.560;2024-03-08T08:02:24;10.43;;;6.72;;
26946;SDS011;14501;52.282;10.560;2024-03-08T08:04:50;17.02;;;6.88;;
26946;SDS011;14501;52.282;10.560;2024-03-08T08:07:16;8.95;;;5.85;;
26946;SDS011;14501;52.282;10.560;2024-03-08T08:09:41;16.92;;;7.38;;
26946;SDS011;14501;52.282;10.560;2024-03-08T08:12:10;10.32;;;6.93;;
26946;SDS011;14501;52.282;10.560;2024-03-08T08:14:37;18.27;;;7.97;;
26946;SDS011;14501;52.282;10.560;2024-03-08T08:17:04;16.60;;;7.50;;
26946;SDS011;14501;52.282;10.560;2024-03-08T08:19:30;17.40;;;6.85;;
26946;SDS011;14501;52.282;10.560;2024-03-08T08:21:56;17.30;;;7.18;;
26946;SDS011;14501;52.282;10.560;2024-03-08T08:24:22;12.43;;;5.65;;
26946;SDS011;14501;52.282;10.560;2024-03-08T08:26:48;16.52;;;7.32;;
26946;SDS011;14501;52.282;10.560;2024-03-08T08:29:14;11.57;;;5.97;;
26946;SDS011;14501;52.282;10.560;2024-03-08T08:31:39;16.35;;;8.15;;
26946;SDS011;14501;52.282;10.560;2024-03-08T08:34:05;20.13;;;6.40;;
26946;SDS011;14501;52.282;10.560;2024-03-08T08:36:32;17.50;;;7.22;;
26946;SDS011;14501;52.282;10.560;2024-03-08T08:38:58;12.63;;;7.55;;
26946;SDS011;14501;52.282;10.560;2024-03-08T08:41:24;10.13;;;6.38;;
26946;SDS011;14501;52.282;10.560;2024-03-08T08:43:50;14.25;;;7.40;;
26946;SDS011;14501;52.282;10.560;2024-03-08T08:46:19;20.10;;;8.27;;
26946;SDS011;14501;52.282;10.560;2024-03-08T08:48:44;12.30;;;7.20;;
26946;SDS011;14501;52.282;10.560;2024-03-08T08:51:11;14.20;;;7.70;;
26946;SDS011;14501;52.282;10.560;2024-03-08T08:53:40;18.00;;;8.25;;
26946;SDS011;14501;52.282;10.560;2024-03-08T08:56:10;17.33;;;8.30;;
26946;SDS011;14501;52.282;10.560;2024-03-08T08:58:38;15.25;;;7.70;;
26946;SDS011;14501;52.282;10.560;2024-03-08T09:01:10;16.20;;;8.00;;
26946;SDS011;14501;52.282;10.560;2024-03-08T09:03:37;17.45;;;8.35;;
26946;SDS011;14501;52.282;10.560;2024-03-08T09:06:05;19.27;;;8.27;;
26946;SDS011;14501;52.282;10.560;2024-03-08T09:08:34;17.15;;;8.90;;
26946;SDS011;14501;52.282;10.560;2024-03-08T09:11:00;17.42;;;9.15;;
26946;SDS011;14501;52.282;10.560;2024-03-08T09:13:26;24.00;;;9.90;;
26946;SDS011;14501;52.282;10.560;2024-03-08T09:15:52;18.00;;;9.20;;
26946;SDS011;14501;52.282;10.560;2024-03-08T09:18:18;15.77;;;8.10;;
26946;SDS011;14501;52.282;10.560;2024-03-08T09:20:44;16.55;;;9.60;;
26946;SDS011;14501;52.282;10.560;2024-03-08T09:23:10;19.55;;;9.00;;
26946;SDS011;14501;52.282;10.560;2024-03-08T09:25:35;15.10;;;8.13;;
26946;SDS011;14501;52.282;10.560;2024-03-08T09:28:01;15.52;;;7.88;;
26946;SDS011;14501;52.282;10.560;2024-03-08T09:30:26;16.10;;;9.55;;
26946;SDS011;14501;52.282;10.560;2024-03-08T09:32:53;15.23;;;7.97;;
26946;SDS011;14501;52.282;10.560;2024-03-08T09:35:19;16.92;;;8.57;;
26946;SDS011;14501;52.282;10.560;2024-03-08T09:37:45;15.55;;;8.88;;
26946;SDS011;14501;52.282;10.560;2024-03-08T09:40:12;16.80;;;8.65;;
26946;SDS011;14501;52.282;10.560;2024-03-08T09:42:40;21.00;;;9.63;;
26946;SDS011;14501;52.282;10.560;2024-03-08T09:45:10;21.58;;;9.80;;
26946;SDS011;14501;52.282;10.560;2024-03-08T09:47:40;14.85;;;8.73;;
26946;SDS011;14501;52.282;10.560;2024-03-08T09:50:07;17.75;;;9.32;;
26946;SDS011;14501;52.282;10.560;2024-03-08T09:52:43;17.95;;;9.68;;
26946;SDS011;14501;52.282;10.560;2024-03-08T09:55:12;24.63;;;10.38;;
26946;SDS011;14501;52.282;10.560;2024-03-08T09:57:38;20.90;;;9.27;;
26946;SDS011;14501;52.282;10.560;2024-03-08T10:00:05;20.63;;;10.05;;
26946;SDS011;14501;52.282;10.560;2024-03-08T10:02:46;19.83;;;9.57;;
26946;SDS011;14501;52.282;10.560;2024-03-08T10:05:12;15.93;;;9.10;;
26946;SDS011;14501;52.282;10.560;2024-03-08T10:07:39;17.15;;;9.35;;
26946;SDS011;14501;52.282;10.560;2024-03-08T10:10:05;20.80;;;9.38;;
26946;SDS011;14501;52.282;10.560;2024-03-08T10:12:33;20.77;;;9.70;;
26946;SDS011;14501;52.282;10.560;2024-03-08T10:14:59;21.45;;;10.45;;
26946;SDS011;14501;52.282;10.560;2024-03-08T10:17:26;16.02;;;9.00;;
26946;SDS011;14501;52.282;10.560;2024-03-08T10:19:52;20.00;;;10.15;;
26946;SDS011;14501;52.282;10.560;2024-03-08T10:22:18;21.88;;;10.43;;
26946;SDS011;14501;52.282;10.560;2024-03-08T10:24:47;19.15;;;10.00;;
26946;SDS011;14501;52.282;10.560;2024-03-08T10:27:13;18.05;;;9.20;;
26946;SDS011;14501;52.282;10.560;2024-03-08T10:29:41;17.58;;;9.75;;
26946;SDS011;14501;52.282;10.560;2024-03-08T10:32:09;21.13;;;9.80;;
26946;SDS011;14501;52.282;10.560;2024-03-08T10:34:35;20.98;;;9.13;;
26946;SDS011;14501;52.282;10.560;2024-03-08T10:37:03;15.55;;;8.40;;
26946;SDS011;14501;52.282;10.560;2024-03-08T10:39:36;19.45;;;8.30;;
26946;SDS011;14501;52.282;10.560;2024-03-08T10:42:03;14.02;;;7.75;;
26946;SDS011;14501;52.282;10.560;2024-03-08T10:47:15;19.80;;;8.30;;
26946;SDS011;14501;52.282;10.560;2024-03-08T10:52:29;18.63;;;9.40;;
26946;SDS011;14501;52.282;10.560;2024-03-08T10:54:56;18.42;;;7.28;;
26946;SDS011;14501;52.282;10.560;2024-03-08T10:57:23;17.50;;;7.90;;
26946;SDS011;14501;52.282;10.560;2024-03-08T10:59:49;18.90;;;9.48;;
26946;SDS011;14501;52.282;10.560;2024-03-08T11:02:17;19.17;;;7.22;;
26946;SDS011;14501;52.282;10.560;2024-03-08T11:04:50;18.27;;;8.32;;
26946;SDS011;14501;52.282;10.560;2024-03-08T11:07:16;20.27;;;9.03;;
26946;SDS011;14501;52.282;10.560;2024-03-08T11:09:44;19.30;;;9.02;;
26946;SDS011;14501;52.282;10.560;2024-03-08T11:14:48;13.27;;;5.82;;
26946;SDS011;14501;52.282;10.560;2024-03-08T11:17:16;17.58;;;9.77;;
26946;SDS011;14501;52.282;10.560;2024-03-08T11:19:47;15.32;;;7.05;;
26946;SDS011;14501;52.282;10.560;2024-03-08T11:22:20;19.58;;;7.68;;
26946;SDS011;14501;52.282;10.560;2024-03-08T11:24:48;18.73;;;7.10;;
26946;SDS011;14501;52.282;10.560;2024-03-08T11:27:14;16.92;;;6.95;;
26946;SDS011;14501;52.282;10.560;2024-03-08T11:29:40;12.63;;;6.68;;
26946;SDS011;14501;52.282;10.560;2024-03-08T11:34:32;15.93;;;6.88;;
26946;SDS011;14501;52.282;10.560;2024-03-08T11:36:58;9.77;;;5.85;;
26946;SDS011;14501;52.282;10.560;2024-03-08T11:39:25;14.43;;;7.45;;
26946;SDS011;14501;52.282;10.560;2024-03-08T11:41:51;18.05;;;7.10;;
26946;SDS011;14501;52.282;10.560;2024-03-08T11:44:17;17.50;;;8.68;;
26946;SDS011;14501;52.282;10.560;2024-03-08T11:46:43;11.85;;;6.85;;
26946;SDS011;14501;52.282;10.560;2024-03-08T11:49:13;14.02;;;7.18;;
26946;SDS011;14501;52.282;10.560;2024-03-08T11:51:39;14.85;;;7.85;;
26946;SDS011;14501;52.282;10.560;2024-03-08T11:54:05;16.30;;;7.15;;
26946;SDS011;14501;52.282;10.560;2024-03-08T11:56:36;14.45;;;7.35;;
26946;SDS011;14501;52.282;10.560;2024-03-08T11:59:02;13.55;;;7.35;;
26946;SDS011;14501;52.282;10.560;2024-03-08T12:01:28;12.88;;;7.53;;
26946;SDS011;14501;52.282;10.560;2024-03-08T12:03:54;15.35;;;7.47;;
26946;SDS011;14501;52.282;10.560;2024-03-08T12:06:23;16.95;;;6.80;;
26946;SDS011;14501;52.282;10.560;2024-03-08T12:08:49;10.30;;;5.25;;
26946;SDS011;14501;52.282;10.560;2024-03-08T12:11:16;7.47;;;5.07;;
26946;SDS011;14501;52.282;10.560;2024-03-08T12:13:47;10.07;;;5.45;;
26946;SDS011;14501;52.282;10.560;2024-03-08T12:16:15;15.02;;;4.97;;
26946;SDS011;14501;52.282;10.560;2024-03-08T12:18:52;8.00;;;4.30;;
26946;SDS011;14501;52.282;10.560;2024-03-08T12:21:20;7.85;;;3.85;;
26946;SDS011;14501;52.282;10.560;2024-03-08T12:23:51;10.98;;;6.13;;
26946;SDS011;14501;52.282;10.560;2024-03-08T12:26:33;10.65;;;5.03;;
26946;SDS011;14501;52.282;10.560;2024-03-08T12:29:17;11.45;;;6.35;;
26946;SDS011;14501;52.282;10.560;2024-03-08T12:31:51;16.75;;;8.05;;
26946;SDS011;14501;52.282;10.560;2024-03-08T12:34:20;12.32;;;6.35;;
26946;SDS011;14501;52.282;10.560;2024-03-08T12:36:47;11.18;;;5.72;;
26946;SDS011;14501;52.282;10.560;2024-03-08T12:39:15;11.18;;;6.13;;
26946;SDS011;14501;52.282;10.560;2024-03-08T12:41:42;10.43;;;5.07;;
26946;SDS011;14501;52.282;10.560;2024-03-08T12:44:08;13.57;;;6.63;;
26946;SDS011;14501;52.282;10.560;2024-03-08T12:46:36;17.42;;;7.78;;
26946;SDS011;14501;52.282;10.560;2024-03-08T12:49:06;13.13;;;6.97;;
26946;SDS011;14501;52.282;10.560;2024-03-08T12:51:33;13.07;;;6.53;;
26946;SDS011;14501;52.282;10.560;2024-03-08T12:53:58;15.35;;;7.07;;
26946;SDS011;14501;52.282;10.560;2024-03-08T12:56:31;9.75;;;5.15;;
26946;SDS011;14501;52.282;10.560;2024-03-08T12:58:58;12.45;;;6.15;;
26946;SDS011;14501;52.282;10.560;2024-03-08T13:01:25;9.60;;;5.45;;
26946;SDS011;14501;52.282;10.560;2024-03-08T13:03:50;14.10;;;6.82;;
26946;SDS011;14501;52.282;10.560;2024-03-08T13:06:16;10.00;;;4.85;;
26946;SDS011;14501;52.282;10.560;2024-03-08T13:08:41;10.10;;;5.32;;
26946;SDS011;14501;52.282;10.560;2024-03-08T13:11:08;13.05;;;7.70;;
26946;SDS011;14501;52.282;10.560;2024-03-08T13:13:37;13.13;;;5.78;;
26946;SDS011;14501;52.282;10.560;2024-03-08T13:16:05;17.40;;;6.40;;
26946;SDS011;14501;52.282;10.560;2024-03-08T13:18:37;13.82;;;5.45;;
26946;SDS011;14501;52.282;10.560;2024-03-08T13:21:03;13.65;;;5.60;;
26946;SDS011;14501;52.282;10.560;2024-03-08T13:23:32;8.27;;;4.65;;
26946;SDS011;14501;52.282;10.560;2024-03-08T13:26:08;8.57;;;6.05;;
26946;SDS011;14501;52.282;10.560;2024-03-08T13:28:46;8.85;;;5.82;;
26946;SDS011;14501;52.282;10.560;2024-03-08T13:31:18;15.57;;;6.68;;
26946;SDS011;14501;52.282;10.560;2024-03-08T13:33:44;21.35;;;6.35;;
26946;SDS011;14501;52.282;10.560;2024-03-08T13:36:12;10.20;;;5.82;;
26946;SDS011;14501;52.282;10.560;2024-03-08T13:38:44;11.73;;;6.05;;
26946;SDS011;14501;52.282;10.560;2024-03-08T13:41:11;13.27;;;6.25;;
26946;SDS011;14501;52.282;10.560;2024-03-08T13:43:37;9.88;;;5.82;;
26946;SDS011;14501;52.282;10.560;2024-03-08T13:46:03;16.30;;;7.20;;
26946;SDS011;14501;52.282;10.560;2024-03-08T13:48:29;12.20;;;7.25;;
26946;SDS011;14501;52.282;10.560;2024-03-08T13:50:56;12.73;;;6.47;;
26946;SDS011;14501;52.282;10.560;2024-03-08T13:53:22;16.45;;;6.65;;
26946;SDS011;14501;52.282;10.560;2024-03-08T13:55:48;16.33;;;7.20;;
26946;SDS011;14501;52.282;10.560;2024-03-08T13:58:15;19.92;;;6.43;;
26946;SDS011;14501;52.282;10.560;2024-03-08T14:00:41;11.13;;;6.95;;
26946;SDS011;14501;52.282;10.560;2024-03-08T14:03:08;14.55;;;6.47;;
26946;SDS011;14501;52.282;10.560;2024-03-08T14:05:35;13.57;;;5.75;;
26946;SDS011;14501;52.282;10.560;2024-03-08T14:08:04;12.80;;;5.18;;
26946;SDS011;14501;52.282;10.560;2024-03-08T14:10:34;11.02;;;4.22;;
26946;SDS011;14501;52.282;10.560;2024-03-08T14:13:00;9.77;;;4.78;;
26946;SDS011;14501;52.282;10.560;2024-03-08T14:15:27;9.55;;;5.63;;
26946;SDS011;14501;52.282;10.560;2024-03-08T14:17:54;15.32;;;5.30;;
26946;SDS011;14501;52.282;10.560;2024-03-08T14:20:20;16.35;;;7.00;;
26946;SDS011;14501;52.282;10.560;2024-03-08T14:22:50;11.30;;;5.47;;
26946;SDS011;14501;52.282;10.560;2024-03-08T14:25:19;6.95;;;4.07;;
26946;SDS011;14501;52.282;10.560;2024-03-08T14:27:48;14.82;;;6.97;;
26946;SDS011;14501;52.282;10.560;2024-03-08T14:30:27;15.57;;;6.60;;
26946;SDS011;14501;52.282;10.560;2024-03-08T14:33:03;7.32;;;5.00;;
26946;SDS011;14501;52.282;10.560;2024-03-08T14:35:34;10.48;;;5.68;;